Nova Petropolis, Brazil
Current Conditions -  °F | °C
As of 11:00 PM on Wednesday 26 Nov 2014 (Local Time) from SBCO Reporting Station
Scattered Clouds Scattered Clouds  
Wind Chill: 73°   Ceiling: Unl
Heat Index: 73°   Visibility: 6mi
Dew Point: 68°   Wind: 10mph
Humidity: 83%   Direction: 170°S
Pressure: 29.91"   Gusts: NA
Location:  29.38°S, 51.12°W
Report Text: SBCO 270100Z 17009KT 9999 SCT019 23/20 Q1013
Loading
Personal Weather Stations






























Interactive Weather Map New forecast layout! Learn more

10-Day Weather Forecast

Advertisements
Track Severe Weather on mobile